sensor_id;sensor_type;location;lat;lon;timestamp;pressure;altitude;pressure_sealevel;temperature;humidity
53262;BME280;39658;51.090;-1.786;2024-03-08T00:01:35;100760.84;;;3.04;100.00
53262;BME280;39658;51.090;-1.786;2024-03-08T00:04:02;100759.34;;;2.99;100.00
53262;BME280;39658;51.090;-1.786;2024-03-08T00:06:29;100756.63;;;3.02;100.00
53262;BME280;39658;51.090;-1.786;2024-03-08T00:08:55;100769.59;;;3.03;100.00
53262;BME280;39658;51.090;-1.786;2024-03-08T00:11:22;100772.00;;;3.10;100.00
53262;BME280;39658;51.090;-1.786;2024-03-08T00:13:51;100779.81;;;3.10;100.00
53262;BME280;39658;51.090;-1.786;2024-03-08T00:16:20;100768.56;;;3.08;100.00
53262;BME280;39658;51.090;-1.786;2024-03-08T00:18:48;100776.38;;;3.08;100.00
53262;BME280;39658;51.090;-1.786;2024-03-08T00:21:15;100775.75;;;3.01;100.00
53262;BME280;39658;51.090;-1.786;2024-03-08T00:23:42;100777.50;;;3.00;100.00
53262;BME280;39658;51.090;-1.786;2024-03-08T00:26:08;100781.00;;;2.99;100.00
53262;BME280;39658;51.090;-1.786;2024-03-08T00:28:35;100784.59;;;2.97;100.00
53262;BME280;39658;51.090;-1.786;2024-03-08T00:31:02;100779.38;;;2.97;100.00
53262;BME280;39658;51.090;-1.786;2024-03-08T00:33:31;100783.66;;;2.98;100.00
53262;BME280;39658;51.090;-1.786;2024-03-08T00:35:57;100780.13;;;3.00;100.00
53262;BME280;39658;51.090;-1.786;2024-03-08T00:38:24;100779.81;;;3.10;100.00
53262;BME280;39658;51.090;-1.786;2024-03-08T00:40:51;100774.53;;;3.11;100.00
53262;BME280;39658;51.090;-1.786;2024-03-08T00:43:18;100766.78;;;3.10;100.00
53262;BME280;39658;51.090;-1.786;2024-03-08T00:45:44;100764.13;;;3.11;100.00
53262;BME280;39658;51.090;-1.786;2024-03-08T00:48:11;100753.88;;;3.07;100.00
53262;BME280;39658;51.090;-1.786;2024-03-08T00:50:39;100749.53;;;3.05;100.00
53262;BME280;39658;51.090;-1.786;2024-03-08T00:53:06;100736.53;;;3.05;100.00
53262;BME280;39658;51.090;-1.786;2024-03-08T00:55:33;100731.16;;;3.10;100.00
53262;BME280;39658;51.090;-1.786;2024-03-08T00:58:00;100725.31;;;3.03;100.00
53262;BME280;39658;51.090;-1.786;2024-03-08T01:00:27;100724.44;;;3.03;100.00
53262;BME280;39658;51.090;-1.786;2024-03-08T01:02:54;100720.06;;;3.05;100.00
53262;BME280;39658;51.090;-1.786;2024-03-08T01:05:21;100714.91;;;3.03;100.00
53262;BME280;39658;51.090;-1.786;2024-03-08T01:07:50;100714.22;;;2.98;100.00
53262;BME280;39658;51.090;-1.786;2024-03-08T01:10:17;100726.22;;;3.02;100.00
53262;BME280;39658;51.090;-1.786;2024-03-08T01:12:44;100723.72;;;2.99;100.00
53262;BME280;39658;51.090;-1.786;2024-03-08T01:15:11;100721.25;;;2.95;100.00
53262;BME280;39658;51.090;-1.786;2024-03-08T01:17:37;100727.56;;;2.89;100.00
53262;BME280;39658;51.090;-1.786;2024-03-08T01:20:05;100713.91;;;2.81;100.00
53262;BME280;39658;51.090;-1.786;2024-03-08T01:22:32;100732.25;;;2.78;100.00
53262;BME280;39658;51.090;-1.786;2024-03-08T01:25:00;100729.66;;;2.78;100.00
53262;BME280;39658;51.090;-1.786;2024-03-08T01:27:30;100736.78;;;2.73;100.00
53262;BME280;39658;51.090;-1.786;2024-03-08T01:29:56;100744.56;;;2.73;100.00
53262;BME280;39658;51.090;-1.786;2024-03-08T01:32:24;100751.53;;;2.72;100.00
53262;BME280;39658;51.090;-1.786;2024-03-08T01:34:51;100755.72;;;2.76;100.00
53262;BME280;39658;51.090;-1.786;2024-03-08T01:37:18;100762.81;;;2.73;100.00
53262;BME280;39658;51.090;-1.786;2024-03-08T01:39:45;100771.56;;;2.70;100.00
53262;BME280;39658;51.090;-1.786;2024-03-08T01:42:13;100780.22;;;2.71;100.00
53262;BME280;39658;51.090;-1.786;2024-03-08T01:44:42;100786.28;;;2.71;100.00
53262;BME280;39658;51.090;-1.786;2024-03-08T01:47:09;100789.22;;;2.60;100.00
53262;BME280;39658;51.090;-1.786;2024-03-08T01:49:37;100793.66;;;2.58;100.00
53262;BME280;39658;51.090;-1.786;2024-03-08T01:52:05;100795.53;;;2.53;100.00
53262;BME280;39658;51.090;-1.786;2024-03-08T01:54:32;100804.25;;;2.52;100.00
53262;BME280;39658;51.090;-1.786;2024-03-08T01:56:59;100818.28;;;2.46;100.00
53262;BME280;39658;51.090;-1.786;2024-03-08T01:59:27;100837.13;;;2.55;100.00
53262;BME280;39658;51.090;-1.786;2024-03-08T02:01:55;100842.75;;;2.41;100.00
53262;BME280;39658;51.090;-1.786;2024-03-08T02:04:22;100860.94;;;2.41;100.00
53262;BME280;39658;51.090;-1.786;2024-03-08T02:06:49;100870.78;;;2.31;100.00
53262;BME280;39658;51.090;-1.786;2024-03-08T02:09:17;100886.41;;;2.31;100.00
53262;BME280;39658;51.090;-1.786;2024-03-08T02:11:44;100907.97;;;2.34;100.00
53262;BME280;39658;51.090;-1.786;2024-03-08T02:14:11;100934.16;;;2.28;100.00
53262;BME280;39658;51.090;-1.786;2024-03-08T02:16:39;100940.19;;;2.30;100.00
53262;BME280;39658;51.090;-1.786;2024-03-08T02:19:06;100947.22;;;2.27;100.00
53262;BME280;39658;51.090;-1.786;2024-03-08T02:21:36;100964.63;;;2.25;100.00
53262;BME280;39658;51.090;-1.786;2024-03-08T02:24:04;100980.38;;;2.20;100.00
53262;BME280;39658;51.090;-1.786;2024-03-08T02:26:31;101006.63;;;2.11;100.00
53262;BME280;39658;51.090;-1.786;2024-03-08T02:28:58;101020.63;;;2.07;100.00
53262;BME280;39658;51.090;-1.786;2024-03-08T02:31:24;101029.38;;;2.03;100.00
53262;BME280;39658;51.090;-1.786;2024-03-08T02:33:51;101040.78;;;1.97;100.00
53262;BME280;39658;51.090;-1.786;2024-03-08T02:36:18;101065.03;;;1.99;100.00
53262;BME280;39658;51.090;-1.786;2024-03-08T02:38:46;101083.34;;;1.94;100.00
53262;BME280;39658;51.090;-1.786;2024-03-08T02:41:13;101095.34;;;1.98;100.00
53262;BME280;39658;51.090;-1.786;2024-03-08T02:43:40;101112.78;;;1.95;100.00
53262;BME280;39658;51.090;-1.786;2024-03-08T02:46:06;101118.97;;;1.89;100.00
53262;BME280;39658;51.090;-1.786;2024-03-08T02:48:33;101137.28;;;1.85;100.00
53262;BME280;39658;51.090;-1.786;2024-03-08T02:51:00;101157.22;;;1.86;100.00
53262;BME280;39658;51.090;-1.786;2024-03-08T02:53:27;101170.09;;;1.90;100.00
53262;BME280;39658;51.090;-1.786;2024-03-08T02:55:55;101190.81;;;1.95;100.00
53262;BME280;39658;51.090;-1.786;2024-03-08T02:58:22;101212.31;;;2.02;100.00
53262;BME280;39658;51.090;-1.786;2024-03-08T03:00:49;101229.50;;;2.09;100.00
53262;BME280;39658;51.090;-1.786;2024-03-08T03:03:16;101252.97;;;2.07;100.00
53262;BME280;39658;51.090;-1.786;2024-03-08T03:05:43;101264.06;;;2.14;100.00
53262;BME280;39658;51.090;-1.786;2024-03-08T03:08:09;101277.84;;;2.19;100.00
53262;BME280;39658;51.090;-1.786;2024-03-08T03:10:37;101283.16;;;2.14;100.00
53262;BME280;39658;51.090;-1.786;2024-03-08T03:13:05;101287.59;;;2.09;100.00
53262;BME280;39658;51.090;-1.786;2024-03-08T03:15:32;101284.72;;;2.22;100.00
53262;BME280;39658;51.090;-1.786;2024-03-08T03:18:00;101290.66;;;2.27;100.00
53262;BME280;39658;51.090;-1.786;2024-03-08T03:20:27;101291.53;;;2.27;100.00
53262;BME280;39658;51.090;-1.786;2024-03-08T03:22:58;101308.75;;;2.33;100.00
53262;BME280;39658;51.090;-1.786;2024-03-08T03:25:27;101307.91;;;2.32;100.00
53262;BME280;39658;51.090;-1.786;2024-03-08T03:27:59;101312.25;;;2.32;100.00
53262;BME280;39658;51.090;-1.786;2024-03-08T03:30:27;101319.34;;;2.25;100.00
53262;BME280;39658;51.090;-1.786;2024-03-08T03:32:58;101304.53;;;2.27;100.00
53262;BME280;39658;51.090;-1.786;2024-03-08T03:35:26;101313.16;;;2.29;100.00
53262;BME280;39658;51.090;-1.786;2024-03-08T03:37:53;101314.75;;;2.37;100.00
53262;BME280;39658;51.090;-1.786;2024-03-08T03:40:31;101318.13;;;2.40;100.00
53262;BME280;39658;51.090;-1.786;2024-03-08T03:42:58;101325.97;;;2.39;100.00
53262;BME280;39658;51.090;-1.786;2024-03-08T03:45:24;101319.03;;;2.38;100.00
53262;BME280;39658;51.090;-1.786;2024-03-08T03:47:53;101323.38;;;2.39;100.00
53262;BME280;39658;51.090;-1.786;2024-03-08T03:50:20;101313.00;;;2.37;100.00
53262;BME280;39658;51.090;-1.786;2024-03-08T03:52:47;101312.97;;;2.39;100.00
53262;BME280;39658;51.090;-1.786;2024-03-08T03:55:14;101305.31;;;2.31;100.00
53262;BME280;39658;51.090;-1.786;2024-03-08T03:57:41;101309.81;;;2.24;100.00
53262;BME280;39658;51.090;-1.786;2024-03-08T04:00:11;101308.94;;;2.25;100.00
53262;BME280;39658;51.090;-1.786;2024-03-08T04:02:38;101319.38;;;2.24;100.00
53262;BME280;39658;51.090;-1.786;2024-03-08T04:05:08;101309.00;;;2.22;100.00
53262;BME280;39658;51.090;-1.786;2024-03-08T04:07:36;101299.44;;;2.23;100.00
53262;BME280;39658;51.090;-1.786;2024-03-08T04:10:03;101305.53;;;2.22;100.00
53262;BME280;39658;51.090;-1.786;2024-03-08T04:12:31;101304.69;;;2.21;100.00
53262;BME280;39658;51.090;-1.786;2024-03-08T04:14:58;101302.13;;;2.20;100.00
53262;BME280;39658;51.090;-1.786;2024-03-08T04:17:25;101310.84;;;2.17;100.00
53262;BME280;39658;51.090;-1.786;2024-03-08T04:19:52;101309.25;;;2.11;100.00
53262;BME280;39658;51.090;-1.786;2024-03-08T04:22:20;101297.25;;;2.04;100.00
53262;BME280;39658;51.090;-1.786;2024-03-08T04:24:48;101297.19;;;2.07;100.00
53262;BME280;39658;51.090;-1.786;2024-03-08T04:27:14;101302.41;;;2.06;100.00
53262;BME280;39658;51.090;-1.786;2024-03-08T04:29:41;101298.25;;;1.97;100.00
53262;BME280;39658;51.090;-1.786;2024-03-08T04:32:09;101306.03;;;1.98;100.00
53262;BME280;39658;51.090;-1.786;2024-03-08T04:34:36;101301.75;;;1.96;100.00
53262;BME280;39658;51.090;-1.786;2024-03-08T04:37:03;101305.34;;;1.89;100.00
53262;BME280;39658;51.090;-1.786;2024-03-08T04:39:32;101308.91;;;1.85;100.00
53262;BME280;39658;51.090;-1.786;2024-03-08T04:42:01;101314.91;;;1.88;100.00
53262;BME280;39658;51.090;-1.786;2024-03-08T04:44:29;101313.78;;;2.00;100.00
53262;BME280;39658;51.090;-1.786;2024-03-08T04:46:57;101337.97;;;2.05;100.00
53262;BME280;39658;51.090;-1.786;2024-03-08T04:49:23;101331.91;;;2.05;100.00
53262;BME280;39658;51.090;-1.786;2024-03-08T04:51:50;101331.97;;;2.02;100.00
53262;BME280;39658;51.090;-1.786;2024-03-08T04:54:17;101338.00;;;2.04;100.00
53262;BME280;39658;51.090;-1.786;2024-03-08T04:56:45;101339.66;;;2.06;100.00
53262;BME280;39658;51.090;-1.786;2024-03-08T04:59:12;101343.25;;;2.02;100.00
53262;BME280;39658;51.090;-1.786;2024-03-08T05:01:39;101336.25;;;2.04;100.00
53262;BME280;39658;51.090;-1.786;2024-03-08T05:04:06;101342.19;;;2.11;100.00
53262;BME280;39658;51.090;-1.786;2024-03-08T05:06:31;101337.81;;;2.13;100.00
53262;BME280;39658;51.090;-1.786;2024-03-08T05:08:59;101335.19;;;2.14;100.00
53262;BME280;39658;51.090;-1.786;2024-03-08T05:11:25;101329.94;;;2.16;100.00
53262;BME280;39658;51.090;-1.786;2024-03-08T05:13:53;101325.66;;;2.13;100.00
53262;BME280;39658;51.090;-1.786;2024-03-08T05:16:21;101328.16;;;2.18;100.00
53262;BME280;39658;51.090;-1.786;2024-03-08T05:18:49;101318.53;;;2.22;100.00
53262;BME280;39658;51.090;-1.786;2024-03-08T05:21:16;101310.78;;;2.19;100.00
53262;BME280;39658;51.090;-1.786;2024-03-08T05:23:45;101310.72;;;2.22;100.00
53262;BME280;39658;51.090;-1.786;2024-03-08T05:26:12;101301.28;;;2.19;100.00
53262;BME280;39658;51.090;-1.786;2024-03-08T05:28:40;101297.69;;;2.23;100.00
53262;BME280;39658;51.090;-1.786;2024-03-08T05:31:08;101279.50;;;2.22;100.00
53262;BME280;39658;51.090;-1.786;2024-03-08T05:33:35;101268.22;;;2.23;100.00
53262;BME280;39658;51.090;-1.786;2024-03-08T05:36:02;101259.53;;;2.24;100.00
53262;BME280;39658;51.090;-1.786;2024-03-08T05:38:29;101242.28;;;2.20;100.00
53262;BME280;39658;51.090;-1.786;2024-03-08T05:40:56;101233.53;;;2.24;100.00
53262;BME280;39658;51.090;-1.786;2024-03-08T05:43:22;101210.28;;;2.16;100.00
53262;BME280;39658;51.090;-1.786;2024-03-08T05:45:50;101195.44;;;2.20;100.00
53262;BME280;39658;51.090;-1.786;2024-03-08T05:48:18;101185.25;;;2.10;100.00
53262;BME280;39658;51.090;-1.786;2024-03-08T05:50:45;101159.34;;;2.06;100.00
53262;BME280;39658;51.090;-1.786;2024-03-08T05:53:12;101151.44;;;2.10;100.00
53262;BME280;39658;51.090;-1.786;2024-03-08T05:55:39;101139.22;;;2.14;100.00
53262;BME280;39658;51.090;-1.786;2024-03-08T05:58:06;101128.88;;;2.11;100.00
53262;BME280;39658;51.090;-1.786;2024-03-08T06:00:33;101119.31;;;2.13;100.00
53262;BME280;39658;51.090;-1.786;2024-03-08T06:03:02;101109.75;;;2.13;100.00
53262;BME280;39658;51.090;-1.786;2024-03-08T06:05:30;101085.50;;;2.13;100.00
53262;BME280;39658;51.090;-1.786;2024-03-08T06:07:57;101071.75;;;2.06;100.00
53262;BME280;39658;51.090;-1.786;2024-03-08T06:10:24;101055.47;;;2.00;100.00
53262;BME280;39658;51.090;-1.786;2024-03-08T06:12:51;101051.97;;;2.01;100.00
53262;BME280;39658;51.090;-1.786;2024-03-08T06:15:17;101041.66;;;1.97;100.00
53262;BME280;39658;51.090;-1.786;2024-03-08T06:17:46;101034.75;;;1.96;100.00
53262;BME280;39658;51.090;-1.786;2024-03-08T06:20:13;101027.91;;;1.92;100.00
53262;BME280;39658;51.090;-1.786;2024-03-08T06:22:41;101014.84;;;1.94;100.00
53262;BME280;39658;51.090;-1.786;2024-03-08T06:25:11;100993.25;;;1.92;100.00
53262;BME280;39658;51.090;-1.786;2024-03-08T06:27:39;100988.00;;;1.93;100.00
53262;BME280;39658;51.090;-1.786;2024-03-08T06:30:08;100977.72;;;1.89;100.00
53262;BME280;39658;51.090;-1.786;2024-03-08T06:32:35;100966.63;;;1.82;100.00
53262;BME280;39658;51.090;-1.786;2024-03-08T06:35:03;100948.59;;;1.76;100.00
53262;BME280;39658;51.090;-1.786;2024-03-08T06:37:31;100953.03;;;1.71;100.00
53262;BME280;39658;51.090;-1.786;2024-03-08T06:40:01;100932.97;;;1.77;100.00
53262;BME280;39658;51.090;-1.786;2024-03-08T06:42:28;100920.94;;;1.73;100.00
53262;BME280;39658;51.090;-1.786;2024-03-08T06:44:59;100915.66;;;1.76;100.00
53262;BME280;39658;51.090;-1.786;2024-03-08T06:47:29;100908.56;;;1.82;100.00
53262;BME280;39658;51.090;-1.786;2024-03-08T06:49:57;100898.00;;;1.88;100.00
53262;BME280;39658;51.090;-1.786;2024-03-08T06:52:24;100888.41;;;1.91;100.00
53262;BME280;39658;51.090;-1.786;2024-03-08T06:54:50;100871.84;;;1.94;100.00
53262;BME280;39658;51.090;-1.786;2024-03-08T06:57:19;100846.72;;;1.94;100.00
53262;BME280;39658;51.090;-1.786;2024-03-08T06:59:47;100840.53;;;1.97;100.00
53262;BME280;39658;51.090;-1.786;2024-03-08T07:02:14;100826.75;;;1.95;100.00
53262;BME280;39658;51.090;-1.786;2024-03-08T07:04:41;100805.28;;;1.88;100.00
53262;BME280;39658;51.090;-1.786;2024-03-08T07:07:07;100780.97;;;1.89;100.00
53262;BME280;39658;51.090;-1.786;2024-03-08T07:09:35;100765.31;;;1.91;100.00
53262;BME280;39658;51.090;-1.786;2024-03-08T07:12:02;100750.44;;;1.96;100.00
53262;BME280;39658;51.090;-1.786;2024-03-08T07:14:30;100719.91;;;2.03;100.00
53262;BME280;39658;51.090;-1.786;2024-03-08T07:16:57;100695.41;;;2.10;100.00
53262;BME280;39658;51.090;-1.786;2024-03-08T07:19:24;100680.66;;;2.10;100.00
53262;BME280;39658;51.090;-1.786;2024-03-08T07:21:51;100651.84;;;2.17;100.00
53262;BME280;39658;51.090;-1.786;2024-03-08T07:24:17;100635.19;;;2.22;100.00
53262;BME280;39658;51.090;-1.786;2024-03-08T07:27:04;100605.63;;;2.25;100.00
53262;BME280;39658;51.090;-1.786;2024-03-08T07:29:33;100562.31;;;2.24;100.00
53262;BME280;39658;51.090;-1.786;2024-03-08T07:32:00;100544.63;;;2.33;100.00
53262;BME280;39658;51.090;-1.786;2024-03-08T07:34:38;100499.38;;;2.38;100.00
53262;BME280;39658;51.090;-1.786;2024-03-08T07:37:05;100461.00;;;2.44;100.00
53262;BME280;39658;51.090;-1.786;2024-03-08T07:39:37;100427.94;;;2.46;100.00
53262;BME280;39658;51.090;-1.786;2024-03-08T07:42:04;100395.75;;;2.49;100.00
53262;BME280;39658;51.090;-1.786;2024-03-08T07:44:32;100359.88;;;2.57;100.00
53262;BME280;39658;51.090;-1.786;2024-03-08T07:46:59;100331.00;;;2.63;100.00
53262;BME280;39658;51.090;-1.786;2024-03-08T07:49:26;100303.78;;;2.72;100.00
53262;BME280;39658;51.090;-1.786;2024-03-08T07:51:52;100274.94;;;2.77;100.00
53262;BME280;39658;51.090;-1.786;2024-03-08T07:54:19;100249.38;;;2.86;100.00
53262;BME280;39658;51.090;-1.786;2024-03-08T07:56:46;100228.16;;;2.96;100.00
53262;BME280;39658;51.090;-1.786;2024-03-08T07:59:13;100198.59;;;2.97;100.00
53262;BME280;39658;51.090;-1.786;2024-03-08T08:01:41;100181.66;;;3.07;100.00
53262;BME280;39658;51.090;-1.786;2024-03-08T08:04:09;100150.06;;;3.15;100.00
53262;BME280;39658;51.090;-1.786;2024-03-08T08:06:38;100115.09;;;3.20;100.00
53262;BME280;39658;51.090;-1.786;2024-03-08T08:09:06;100092.88;;;3.31;100.00
53262;BME280;39658;51.090;-1.786;2024-03-08T08:11:39;100077.97;;;3.34;100.00
53262;BME280;39658;51.090;-1.786;2024-03-08T08:14:06;100052.94;;;3.49;100.00
53262;BME280;39658;51.090;-1.786;2024-03-08T08:16:35;100054.28;;;3.58;100.00
53262;BME280;39658;51.090;-1.786;2024-03-08T08:19:03;100036.34;;;3.69;100.00
53262;BME280;39658;51.090;-1.786;2024-03-08T08:21:33;100029.84;;;3.78;100.00
53262;BME280;39658;51.090;-1.786;2024-03-08T08:24:00;100043.44;;;3.85;100.00
53262;BME280;39658;51.090;-1.786;2024-03-08T08:26:28;100055.66;;;4.02;100.00
53262;BME280;39658;51.090;-1.786;2024-03-08T08:28:55;100058.78;;;4.08;100.00
53262;BME280;39658;51.090;-1.786;2024-03-08T08:31:22;100072.69;;;4.26;100.00
53262;BME280;39658;51.090;-1.786;2024-03-08T08:33:48;100083.81;;;4.30;100.00
53262;BME280;39658;51.090;-1.786;2024-03-08T08:36:17;100095.88;;;4.32;100.00
53262;BME280;39658;51.090;-1.786;2024-03-08T08:38:44;100100.84;;;4.37;100.00
53262;BME280;39658;51.090;-1.786;2024-03-08T08:41:11;100110.53;;;4.35;100.00
53262;BME280;39658;51.090;-1.786;2024-03-08T08:43:38;100123.75;;;4.32;100.00
53262;BME280;39658;51.090;-1.786;2024-03-08T08:46:05;100145.44;;;4.32;100.00
53262;BME280;39658;51.090;-1.786;2024-03-08T08:48:32;100170.56;;;4.53;100.00
53262;BME280;39658;51.090;-1.786;2024-03-08T08:50:58;100169.34;;;4.77;100.00
53262;BME280;39658;51.090;-1.786;2024-03-08T08:53:27;100170.53;;;5.05;100.00
53262;BME280;39658;51.090;-1.786;2024-03-08T08:55:54;100183.13;;;5.14;100.00
53262;BME280;39658;51.090;-1.786;2024-03-08T08:58:21;100179.56;;;5.49;100.00
53262;BME280;39658;51.090;-1.786;2024-03-08T09:00:49;100181.94;;;5.53;100.00
53262;BME280;39658;51.090;-1.786;2024-03-08T09:03:17;100182.13;;;5.82;100.00
53262;BME280;39658;51.090;-1.786;2024-03-08T09:05:44;100193.22;;;6.03;100.00
53262;BME280;39658;51.090;-1.786;2024-03-08T09:08:11;100208.03;;;6.35;100.00
53262;BME280;39658;51.090;-1.786;2024-03-08T09:10:40;100247.88;;;7.31;100.00
53262;BME280;39658;51.090;-1.786;2024-03-08T09:13:08;100251.47;;;8.84;100.00
53262;BME280;39658;51.090;-1.786;2024-03-08T09:15:35;100170.53;;;9.77;100.00
53262;BME280;39658;51.090;-1.786;2024-03-08T09:18:04;100144.69;;;10.31;100.00
53262;BME280;39658;51.090;-1.786;2024-03-08T09:20:31;100146.56;;;10.41;100.00
53262;BME280;39658;51.090;-1.786;2024-03-08T09:22:58;100185.34;;;11.22;100.00
53262;BME280;39658;51.090;-1.786;2024-03-08T09:25:25;100206.69;;;11.53;100.00
53262;BME280;39658;51.090;-1.786;2024-03-08T09:27:53;100198.75;;;12.09;100.00
53262;BME280;39658;51.090;-1.786;2024-03-08T09:30:20;100188.91;;;12.44;100.00
53262;BME280;39658;51.090;-1.786;2024-03-08T09:32:47;100177.41;;;12.33;100.00
53262;BME280;39658;51.090;-1.786;2024-03-08T09:35:16;100161.44;;;12.02;100.00
53262;BME280;39658;51.090;-1.786;2024-03-08T09:37:43;100148.03;;;11.49;100.00
53262;BME280;39658;51.090;-1.786;2024-03-08T09:40:12;100145.59;;;11.80;100.00
53262;BME280;39658;51.090;-1.786;2024-03-08T09:42:40;100138.81;;;12.84;100.00
53262;BME280;39658;51.090;-1.786;2024-03-08T09:45:10;100119.22;;;13.58;100.00
53262;BME280;39658;51.090;-1.786;2024-03-08T09:47:39;100117.28;;;13.70;100.00
53262;BME280;39658;51.090;-1.786;2024-03-08T09:50:07;100087.50;;;13.06;100.00
53262;BME280;39658;51.090;-1.786;2024-03-08T09:52:36;100096.91;;;12.59;100.00
53262;BME280;39658;51.090;-1.786;2024-03-08T09:55:04;100098.63;;;11.28;100.00
53262;BME280;39658;51.090;-1.786;2024-03-08T09:57:32;100110.38;;;12.02;100.00
53262;BME280;39658;51.090;-1.786;2024-03-08T09:59:59;100095.28;;;13.70;100.00
53262;BME280;39658;51.090;-1.786;2024-03-08T10:02:27;100084.09;;;15.11;100.00
53262;BME280;39658;51.090;-1.786;2024-03-08T10:04:57;100039.28;;;15.54;100.00
53262;BME280;39658;51.090;-1.786;2024-03-08T10:07:24;100016.06;;;13.76;100.00
53262;BME280;39658;51.090;-1.786;2024-03-08T10:09:52;100017.34;;;14.59;100.00
53262;BME280;39658;51.090;-1.786;2024-03-08T10:12:19;100000.31;;;14.99;100.00
53262;BME280;39658;51.090;-1.786;2024-03-08T10:14:46;99992.28;;;15.90;100.00
53262;BME280;39658;51.090;-1.786;2024-03-08T10:17:13;99990.72;;;16.24;100.00
53262;BME280;39658;51.090;-1.786;2024-03-08T10:19:49;99973.25;;;17.25;100.00
53262;BME280;39658;51.090;-1.786;2024-03-08T10:22:17;99978.69;;;16.38;100.00
53262;BME280;39658;51.090;-1.786;2024-03-08T10:24:45;99964.88;;;15.90;100.00
53262;BME280;39658;51.090;-1.786;2024-03-08T10:27:12;99957.47;;;16.54;100.00
53262;BME280;39658;51.090;-1.786;2024-03-08T10:29:39;99958.94;;;16.83;100.00
53262;BME280;39658;51.090;-1.786;2024-03-08T10:32:09;99960.25;;;16.44;100.00
53262;BME280;39658;51.090;-1.786;2024-03-08T10:34:37;99957.06;;;16.75;100.00
53262;BME280;39658;51.090;-1.786;2024-03-08T10:37:07;99958.25;;;17.23;100.00
53262;BME280;39658;51.090;-1.786;2024-03-08T10:39:39;99960.28;;;16.00;100.00
53262;BME280;39658;51.090;-1.786;2024-03-08T10:42:12;99954.28;;;16.50;100.00
53262;BME280;39658;51.090;-1.786;2024-03-08T10:44:49;99937.25;;;16.35;100.00
53262;BME280;39658;51.090;-1.786;2024-03-08T10:47:26;99942.78;;;15.53;100.00
53262;BME280;39658;51.090;-1.786;2024-03-08T10:50:02;99919.66;;;16.85;100.00
53262;BME280;39658;51.090;-1.786;2024-03-08T10:52:34;99920.31;;;16.79;100.00
53262;BME280;39658;51.090;-1.786;2024-03-08T10:55:02;99913.31;;;17.62;100.00
53262;BME280;39658;51.090;-1.786;2024-03-08T10:57:30;99914.09;;;17.04;100.00
53262;BME280;39658;51.090;-1.786;2024-03-08T10:59:57;99905.75;;;16.48;100.00
53262;BME280;39658;51.090;-1.786;2024-03-08T11:02:25;99894.31;;;18.54;100.00
53262;BME280;39658;51.090;-1.786;2024-03-08T11:04:55;99882.19;;;18.35;100.00
53262;BME280;39658;51.090;-1.786;2024-03-08T11:07:25;99897.38;;;18.74;100.00
53262;BME280;39658;51.090;-1.786;2024-03-08T11:09:55;99883.28;;;18.57;100.00
53262;BME280;39658;51.090;-1.786;2024-03-08T11:12:24;99889.47;;;17.76;100.00
53262;BME280;39658;51.090;-1.786;2024-03-08T11:14:52;99895.41;;;16.88;100.00
53262;BME280;39658;51.090;-1.786;2024-03-08T11:17:39;99897.63;;;16.58;100.00
53262;BME280;39658;51.090;-1.786;2024-03-08T11:20:10;99889.19;;;16.28;100.00
53262;BME280;39658;51.090;-1.786;2024-03-08T11:22:41;99890.91;;;16.46;100.00
53262;BME280;39658;51.090;-1.786;2024-03-08T11:25:34;99881.66;;;17.09;100.00
53262;BME280;39658;51.090;-1.786;2024-03-08T11:28:13;99876.16;;;17.52;100.00
53262;BME280;39658;51.090;-1.786;2024-03-08T11:30:43;99885.47;;;16.21;100.00
53262;BME280;39658;51.090;-1.786;2024-03-08T11:33:11;99882.50;;;16.24;100.00
53262;BME280;39658;51.090;-1.786;2024-03-08T11:35:39;99877.69;;;17.54;100.00
53262;BME280;39658;51.090;-1.786;2024-03-08T11:38:07;99866.50;;;16.59;100.00
53262;BME280;39658;51.090;-1.786;2024-03-08T11:40:36;99856.34;;;16.46;100.00
53262;BME280;39658;51.090;-1.786;2024-03-08T11:43:03;99858.66;;;17.74;100.00
53262;BME280;39658;51.090;-1.786;2024-03-08T11:45:33;99850.69;;;19.01;100.00
53262;BME280;39658;51.090;-1.786;2024-03-08T11:48:02;99842.63;;;18.46;98.63
53262;BME280;39658;51.090;-1.786;2024-03-08T11:50:30;99844.47;;;18.38;98.55
53262;BME280;39658;51.090;-1.786;2024-03-08T11:53:02;99842.72;;;18.61;97.01
53262;BME280;39658;51.090;-1.786;2024-03-08T11:55:29;99845.69;;;17.63;98.44
53262;BME280;39658;51.090;-1.786;2024-03-08T11:58:02;99851.50;;;16.49;100.00
53262;BME280;39658;51.090;-1.786;2024-03-08T12:00:30;99859.78;;;16.38;100.00
53262;BME280;39658;51.090;-1.786;2024-03-08T12:03:05;99851.75;;;16.81;100.00
53262;BME280;39658;51.090;-1.786;2024-03-08T12:05:33;99833.69;;;18.31;100.00
53262;BME280;39658;51.090;-1.786;2024-03-08T12:08:00;99818.63;;;19.01;92.38
53262;BME280;39658;51.090;-1.786;2024-03-08T12:10:27;99812.78;;;20.48;89.98
53262;BME280;39658;51.090;-1.786;2024-03-08T12:12:56;99820.59;;;19.45;88.55
53262;BME280;39658;51.090;-1.786;2024-03-08T12:15:28;99828.22;;;17.27;89.82
53262;BME280;39658;51.090;-1.786;2024-03-08T12:17:55;99836.41;;;16.58;99.58
53262;BME280;39658;51.090;-1.786;2024-03-08T12:20:24;99829.06;;;16.44;100.00
53262;BME280;39658;51.090;-1.786;2024-03-08T12:22:51;99830.50;;;15.95;100.00
53262;BME280;39658;51.090;-1.786;2024-03-08T12:25:19;99837.69;;;15.33;100.00
53262;BME280;39658;51.090;-1.786;2024-03-08T12:27:46;99828.25;;;14.76;100.00
53262;BME280;39658;51.090;-1.786;2024-03-08T12:30:20;99832.41;;;15.77;100.00
53262;BME280;39658;51.090;-1.786;2024-03-08T12:32:52;99814.41;;;16.40;100.00
53262;BME280;39658;51.090;-1.786;2024-03-08T12:35:20;99814.22;;;16.33;100.00
53262;BME280;39658;51.090;-1.786;2024-03-08T12:37:48;99795.03;;;15.78;100.00
53262;BME280;39658;51.090;-1.786;2024-03-08T12:40:17;99799.19;;;14.93;100.00
53262;BME280;39658;51.090;-1.786;2024-03-08T12:42:44;99799.22;;;14.47;100.00
53262;BME280;39658;51.090;-1.786;2024-03-08T12:45:13;99794.50;;;14.41;100.00